createdAt,value
2018-09-29T00:00:06.803Z,8.30
2018-09-29T00:02:35.420Z,8.69
2018-09-29T00:05:05.656Z,8.99
2018-09-29T00:07:35.109Z,9.10
2018-09-29T00:10:03.768Z,9.20
2018-09-29T00:12:32.355Z,9.25
2018-09-29T00:15:00.894Z,9.03
2018-09-29T00:17:29.576Z,8.85
2018-09-29T00:19:58.225Z,8.78
2018-09-29T00:22:26.703Z,8.30
2018-09-29T00:24:55.308Z,8.13
2018-09-29T00:27:23.853Z,8.19
2018-09-29T00:29:52.454Z,8.37
2018-09-29T00:32:21.111Z,8.46
2018-09-29T00:34:50.578Z,8.59
2018-09-29T00:37:19.835Z,8.80
2018-09-29T00:39:48.504Z,8.94
2018-09-29T00:42:17.133Z,9.05
2018-09-29T00:44:46.459Z,9.06
2018-09-29T00:47:15.083Z,9.11
2018-09-29T00:49:44.158Z,8.91
2018-09-29T00:52:13.021Z,8.60
2018-09-29T00:54:41.819Z,8.53
2018-09-29T00:57:10.307Z,8.12
2018-09-29T00:59:38.929Z,7.76
2018-09-29T01:02:07.431Z,7.61
2018-09-29T01:04:36.028Z,7.42
2018-09-29T01:07:04.625Z,7.41
2018-09-29T01:09:33.199Z,7.56
2018-09-29T01:12:01.818Z,7.90
2018-09-29T01:14:30.338Z,7.96
2018-09-29T01:16:58.986Z,8.09
2018-09-29T01:19:27.589Z,8.23
2018-09-29T01:21:56.163Z,8.40
2018-09-29T01:24:24.970Z,8.33
2018-09-29T01:26:53.709Z,8.06
2018-09-29T01:32:03.064Z,7.92
2018-09-29T01:34:31.661Z,7.50
2018-09-29T01:37:00.305Z,7.05
2018-09-29T01:39:28.950Z,6.77
2018-09-29T01:41:57.583Z,6.81
2018-09-29T01:44:26.124Z,7.34
2018-09-29T01:46:54.712Z,7.80
2018-09-29T01:49:23.279Z,8.16
2018-09-29T01:51:51.908Z,8.38
2018-09-29T01:54:20.474Z,8.51
2018-09-29T01:56:49.679Z,8.62
2018-09-29T01:59:18.245Z,8.69
2018-09-29T02:01:47.067Z,8.55
2018-09-29T02:04:16.304Z,8.34
2018-09-29T02:06:45.033Z,8.30
2018-09-29T02:09:13.578Z,7.96
2018-09-29T02:11:42.165Z,7.49
2018-09-29T02:14:10.818Z,7.08
2018-09-29T02:16:39.535Z,7.05
2018-09-29T02:19:08.139Z,7.11
2018-09-29T02:21:36.847Z,7.35
2018-09-29T02:24:05.447Z,7.70
2018-09-29T02:26:34.484Z,7.85
2018-09-29T02:29:03.182Z,7.86
2018-09-29T02:31:32.754Z,8.08
2018-09-29T02:34:01.465Z,8.14
2018-09-29T02:36:30.833Z,8.12
2018-09-29T02:38:59.478Z,7.93
2018-09-29T02:41:28.165Z,7.94
2018-09-29T02:43:56.747Z,7.85
2018-09-29T02:46:26.957Z,7.60
2018-09-29T02:48:56.657Z,7.54
2018-09-29T02:51:25.242Z,7.60
2018-09-29T02:53:53.838Z,7.65
2018-09-29T02:56:22.429Z,7.79
2018-09-29T02:58:51.168Z,7.96
2018-09-29T03:01:19.850Z,7.99
2018-09-29T03:03:48.572Z,7.86
2018-09-29T03:06:17.777Z,7.80
2018-09-29T03:08:46.874Z,7.91
2018-09-29T03:11:16.248Z,7.95
2018-09-29T03:13:45.003Z,7.85
2018-09-29T03:16:14.337Z,7.65
2018-09-29T03:18:43.030Z,7.62
2018-09-29T03:21:11.649Z,7.45
2018-09-29T03:23:40.335Z,7.40
2018-09-29T03:26:08.953Z,7.11
2018-09-29T03:28:38.246Z,6.95
2018-09-29T03:31:07.269Z,7.07
2018-09-29T03:33:35.827Z,7.39
2018-09-29T03:36:04.468Z,7.59
2018-09-29T03:38:33.849Z,7.54
2018-09-29T03:41:02.453Z,7.50
2018-09-29T03:43:31.058Z,7.49
2018-09-29T03:45:59.693Z,7.55
2018-09-29T03:48:28.226Z,7.46
2018-09-29T03:50:56.905Z,7.28
2018-09-29T03:53:25.692Z,7.26
2018-09-29T03:55:54.144Z,6.90
2018-09-29T03:58:22.694Z,6.58
2018-09-29T04:00:51.232Z,6.71
2018-09-29T04:03:19.747Z,6.84
2018-09-29T04:05:49.743Z,7.00
2018-09-29T04:08:18.337Z,7.22
2018-09-29T04:10:48.049Z,7.35
2018-09-29T04:13:16.618Z,7.54
2018-09-29T04:15:45.327Z,7.53
2018-09-29T04:18:13.928Z,7.47
2018-09-29T04:20:42.618Z,7.55
2018-09-29T04:23:11.303Z,7.40
2018-09-29T04:25:39.888Z,7.03
2018-09-29T04:28:08.984Z,6.86
2018-09-29T04:30:37.993Z,6.83
2018-09-29T04:33:07.390Z,6.84
2018-09-29T04:35:36.002Z,6.80
2018-09-29T04:38:04.844Z,6.63
2018-09-29T04:40:33.423Z,6.71
2018-09-29T04:43:02.998Z,6.92
2018-09-29T04:45:31.579Z,7.10
2018-09-29T04:48:00.244Z,7.19
2018-09-29T04:50:28.814Z,7.24
2018-09-29T04:52:57.418Z,7.27
2018-09-29T04:55:27.111Z,7.27
2018-09-29T04:57:56.312Z,7.31
2018-09-29T05:00:24.899Z,7.12
2018-09-29T05:02:53.532Z,6.84
2018-09-29T05:05:22.169Z,6.76
2018-09-29T05:07:50.907Z,6.59
2018-09-29T05:10:19.663Z,6.49
2018-09-29T05:12:48.257Z,6.64
2018-09-29T05:15:16.931Z,6.85
2018-09-29T05:17:45.554Z,6.98
2018-09-29T05:20:14.133Z,7.07
2018-09-29T05:22:42.761Z,7.14
2018-09-29T05:25:11.667Z,7.10
2018-09-29T05:27:40.883Z,7.06
2018-09-29T05:30:10.429Z,7.11
2018-09-29T05:32:38.949Z,7.16
2018-09-29T05:35:08.642Z,7.11
2018-09-29T05:37:37.951Z,6.86
2018-09-29T05:40:06.759Z,6.86
2018-09-29T05:42:35.467Z,6.48
2018-09-29T05:45:04.146Z,6.06
2018-09-29T05:47:33.313Z,5.86
2018-09-29T05:50:01.966Z,5.99
2018-09-29T05:52:30.562Z,6.13
2018-09-29T05:54:59.319Z,6.46
2018-09-29T05:57:27.942Z,6.73
2018-09-29T05:59:56.702Z,6.99
2018-09-29T06:02:25.369Z,7.04
2018-09-29T06:04:53.909Z,7.02
2018-09-29T06:07:22.640Z,7.13
2018-09-29T06:09:51.929Z,7.25
2018-09-29T06:12:20.620Z,7.08
2018-09-29T06:14:49.496Z,7.01
2018-09-29T06:17:18.088Z,6.85
2018-09-29T06:19:46.823Z,6.15
2018-09-29T06:22:15.554Z,5.48
2018-09-29T06:24:44.320Z,5.43
2018-09-29T06:27:12.931Z,5.69
2018-09-29T06:29:41.488Z,6.11
2018-09-29T06:32:10.108Z,6.43
2018-09-29T06:34:39.724Z,6.76
2018-09-29T06:37:09.578Z,7.02
2018-09-29T06:39:39.154Z,7.21
2018-09-29T06:42:07.684Z,7.38
2018-09-29T06:44:36.398Z,7.64
2018-09-29T06:47:05.032Z,7.71
2018-09-29T06:49:33.783Z,7.63
2018-09-29T06:52:03.092Z,7.81
2018-09-29T06:54:32.316Z,7.42
2018-09-29T06:57:02.033Z,6.97
2018-09-29T06:59:30.730Z,6.77
2018-09-29T07:02:00.889Z,6.77
2018-09-29T07:04:29.742Z,7.41
2018-09-29T07:06:58.322Z,8.13
2018-09-29T07:09:26.898Z,8.68
2018-09-29T07:11:55.504Z,9.06
2018-09-29T07:14:24.673Z,9.35
2018-09-29T07:16:53.365Z,9.57
2018-09-29T07:19:22.905Z,9.73
2018-09-29T07:21:52.121Z,9.99
2018-09-29T07:24:21.367Z,9.99
2018-09-29T07:26:50.647Z,10.04
2018-09-29T07:29:19.183Z,9.87
2018-09-29T07:31:48.665Z,9.62
2018-09-29T07:34:17.438Z,9.76
2018-09-29T07:36:46.542Z,9.94
2018-09-29T07:39:15.925Z,9.92
2018-09-29T07:41:44.477Z,10.04
2018-09-29T07:44:13.021Z,10.53
2018-09-29T07:46:42.683Z,11.25
2018-09-29T07:49:11.298Z,11.58
2018-09-29T07:51:40.598Z,11.26
2018-09-29T07:54:09.822Z,11.20
2018-09-29T07:56:38.507Z,11.21
2018-09-29T07:59:07.256Z,11.47
2018-09-29T08:01:35.777Z,12.02
2018-09-29T08:04:04.692Z,12.10
2018-09-29T08:06:33.445Z,11.92
2018-09-29T08:09:01.944Z,11.89
2018-09-29T08:11:31.169Z,12.11
2018-09-29T08:14:00.023Z,12.35
2018-09-29T08:16:29.342Z,12.56
2018-09-29T08:18:58.013Z,12.57
2018-09-29T08:21:26.617Z,12.62
2018-09-29T08:23:55.322Z,12.80
2018-09-29T08:26:23.983Z,13.10
2018-09-29T08:28:52.653Z,13.32
2018-09-29T08:31:21.289Z,13.48
2018-09-29T08:33:49.978Z,14.09
2018-09-29T08:36:19.258Z,14.26
2018-09-29T08:38:47.975Z,14.80
2018-09-29T08:41:16.628Z,14.95
2018-09-29T08:43:45.229Z,15.35
2018-09-29T08:46:13.976Z,15.82
2018-09-29T08:48:42.558Z,15.85
2018-09-29T08:51:11.232Z,15.77
2018-09-29T08:53:40.655Z,15.84
2018-09-29T08:56:09.179Z,15.99
2018-09-29T08:58:37.764Z,15.81
2018-09-29T09:01:06.504Z,16.02
2018-09-29T09:03:35.493Z,16.27
2018-09-29T09:06:04.123Z,16.62
2018-09-29T09:08:33.298Z,16.71
2018-09-29T09:11:01.869Z,16.94
2018-09-29T09:13:30.532Z,16.96
2018-09-29T09:15:59.182Z,16.71
2018-09-29T09:18:27.798Z,16.85
2018-09-29T09:20:56.338Z,16.68
2018-09-29T09:23:25.033Z,16.88
2018-09-29T09:25:53.579Z,16.96
2018-09-29T09:28:22.844Z,16.92
2018-09-29T09:30:51.462Z,16.98
2018-09-29T09:33:20.063Z,17.01
2018-09-29T09:35:48.657Z,17.22
2018-09-29T09:38:17.392Z,17.59
2018-09-29T09:40:46.649Z,17.42
2018-09-29T09:43:15.313Z,17.75
2018-09-29T09:45:43.952Z,17.55
2018-09-29T09:48:13.108Z,17.52
2018-09-29T09:50:42.301Z,17.41
2018-09-29T09:53:10.914Z,17.42
2018-09-29T09:55:39.768Z,17.56
2018-09-29T09:58:08.348Z,17.92
2018-09-29T10:00:43.896Z,17.64
2018-09-29T10:03:17.706Z,17.79
2018-09-29T10:05:46.277Z,17.86
2018-09-29T10:08:14.959Z,17.88
2018-09-29T10:13:18.867Z,17.99
2018-09-29T10:15:47.793Z,17.96
2018-09-29T10:18:17.112Z,18.11
2018-09-29T10:20:46.511Z,18.35
2018-09-29T10:23:15.194Z,18.26
2018-09-29T10:25:44.090Z,17.75
2018-09-29T10:28:12.707Z,18.04
2018-09-29T10:30:41.332Z,18.27
2018-09-29T10:33:34.460Z,18.56
2018-09-29T10:36:03.168Z,18.95
2018-09-29T10:38:31.803Z,18.84
2018-09-29T10:41:01.178Z,18.86
2018-09-29T10:43:29.819Z,19.12
2018-09-29T10:45:58.936Z,19.00
2018-09-29T10:48:28.278Z,18.78
2018-09-29T10:50:56.952Z,18.81
2018-09-29T10:53:25.887Z,18.94
2018-09-29T10:55:54.522Z,18.93
2018-09-29T10:58:23.038Z,19.04
2018-09-29T11:00:52.247Z,19.05
2018-09-29T11:03:21.198Z,18.94
2018-09-29T11:05:50.401Z,19.03
2018-09-29T11:08:19.162Z,18.74
2018-09-29T11:10:47.826Z,18.39
2018-09-29T11:13:17.268Z,18.48
2018-09-29T11:15:45.946Z,18.72
2018-09-29T11:25:10.138Z,19.12
2018-09-29T11:27:38.791Z,19.01
2018-09-29T11:30:07.659Z,18.88
2018-09-29T11:32:36.317Z,18.84
2018-09-29T11:35:05.381Z,18.66
2018-09-29T11:37:34.098Z,18.48
2018-09-29T11:40:02.818Z,18.23
2018-09-29T11:42:31.386Z,18.14
2018-09-29T11:45:00.081Z,18.12
2018-09-29T11:47:28.753Z,18.31
2018-09-29T11:49:57.279Z,18.47
2018-09-29T11:52:25.829Z,18.67
2018-09-29T11:54:54.605Z,18.87
2018-09-29T11:57:23.345Z,18.98
2018-09-29T11:59:52.170Z,18.92
2018-09-29T12:02:21.597Z,18.93
2018-09-29T12:04:50.390Z,19.01
2018-09-29T12:07:18.997Z,19.02
2018-09-29T12:09:48.551Z,19.05
2018-09-29T12:12:17.132Z,19.16
2018-09-29T12:14:46.203Z,18.90
2018-09-29T12:17:14.916Z,18.77
2018-09-29T12:19:44.601Z,18.65
2018-09-29T12:22:13.911Z,18.43
2018-09-29T12:24:42.596Z,18.42
2018-09-29T12:27:11.142Z,18.63
2018-09-29T12:29:39.836Z,18.90
2018-09-29T12:32:08.480Z,19.22
2018-09-29T12:34:37.783Z,19.27
2018-09-29T12:37:06.729Z,19.28
2018-09-29T12:39:35.507Z,19.22
2018-09-29T12:42:04.046Z,19.36
2018-09-29T12:44:33.507Z,19.19
2018-09-29T12:47:02.023Z,19.12
2018-09-29T12:49:30.761Z,19.06
2018-09-29T12:51:59.418Z,18.76
2018-09-29T12:54:28.079Z,18.63
2018-09-29T12:56:56.822Z,18.54
2018-09-29T12:59:25.478Z,18.43
2018-09-29T13:01:53.992Z,18.53
2018-09-29T13:04:22.601Z,18.49
2018-09-29T13:06:51.185Z,18.66
2018-09-29T13:09:19.775Z,18.75
2018-09-29T13:11:48.999Z,18.86
2018-09-29T13:14:17.657Z,18.93
2018-09-29T13:16:47.164Z,18.71
2018-09-29T13:19:15.728Z,18.63
2018-09-29T13:21:45.147Z,18.71
2018-09-29T13:24:13.737Z,18.74
2018-09-29T13:26:42.306Z,18.66
2018-09-29T13:29:11.006Z,18.61
2018-09-29T13:31:39.593Z,18.61
2018-09-29T13:34:08.962Z,18.66
2018-09-29T13:36:37.692Z,18.42
2018-09-29T13:39:07.407Z,18.48
2018-09-29T13:41:35.964Z,18.52
2018-09-29T13:44:04.591Z,18.59
2018-09-29T13:46:33.286Z,18.56
2018-09-29T13:49:02.046Z,18.64
2018-09-29T13:51:30.690Z,18.66
2018-09-29T13:53:59.360Z,18.83
2018-09-29T13:56:28.851Z,18.83
2018-09-29T13:58:57.390Z,18.97
2018-09-29T14:01:26.083Z,18.91
2018-09-29T14:03:55.347Z,18.83
2018-09-29T14:06:24.032Z,18.77
2018-09-29T14:08:53.297Z,18.79
2018-09-29T14:11:22.552Z,18.57
2018-09-29T14:13:51.300Z,18.27
2018-09-29T14:16:20.033Z,18.08
2018-09-29T14:18:49.576Z,18.17
2018-09-29T14:21:19.010Z,18.31
2018-09-29T14:23:47.797Z,18.53
2018-09-29T14:26:16.567Z,18.70
2018-09-29T14:28:45.152Z,18.68
2018-09-29T14:31:13.835Z,18.47
2018-09-29T14:33:42.424Z,18.50
2018-09-29T14:36:11.028Z,18.38
2018-09-29T14:38:39.650Z,18.33
2018-09-29T14:41:09.106Z,18.31
2018-09-29T14:43:37.751Z,18.29
2018-09-29T14:46:06.483Z,18.28
2018-09-29T14:48:35.837Z,18.28
2018-09-29T14:51:04.437Z,18.24
2018-09-29T14:53:33.516Z,18.10
2018-09-29T14:56:02.203Z,18.16
2018-09-29T14:58:31.160Z,18.33
2018-09-29T15:01:00.362Z,18.33
2018-09-29T15:03:29.779Z,18.38
2018-09-29T15:05:58.287Z,18.53
2018-09-29T15:08:26.945Z,18.53
2018-09-29T15:10:55.497Z,18.12
2018-09-29T15:13:24.492Z,17.94
2018-09-29T15:15:53.028Z,17.91
2018-09-29T15:18:22.283Z,18.08
2018-09-29T15:20:50.952Z,17.87
2018-09-29T15:23:20.138Z,17.79
2018-09-29T15:25:49.901Z,17.74
2018-09-29T15:28:19.147Z,17.66
2018-09-29T15:30:50.526Z,17.78
2018-09-29T15:33:19.358Z,17.84
2018-09-29T15:35:47.996Z,17.87
2018-09-29T15:38:17.203Z,17.88
2018-09-29T15:40:46.452Z,17.78
2018-09-29T15:43:15.142Z,17.60
2018-09-29T15:45:44.495Z,17.55
2018-09-29T15:48:13.716Z,17.46
2018-09-29T15:50:42.389Z,17.28
2018-09-29T15:53:11.141Z,17.19
2018-09-29T15:55:41.984Z,17.16
2018-09-29T15:58:11.061Z,16.98
2018-09-29T16:00:40.524Z,17.00
2018-09-29T16:03:09.203Z,17.00
2018-09-29T16:05:37.806Z,17.04
2018-09-29T16:08:06.477Z,16.70
2018-09-29T16:10:35.203Z,16.46
2018-09-29T16:13:03.772Z,16.43
2018-09-29T16:15:32.498Z,16.11
2018-09-29T16:18:01.755Z,15.62
2018-09-29T16:20:30.472Z,15.35
2018-09-29T16:22:59.140Z,15.26
2018-09-29T16:25:27.705Z,15.22
2018-09-29T16:27:57.042Z,15.18
2018-09-29T16:30:25.736Z,15.06
2018-09-29T16:32:54.441Z,15.05
2018-09-29T16:35:23.778Z,14.93
2018-09-29T16:37:52.662Z,14.73
2018-09-29T16:40:21.285Z,14.57
2018-09-29T16:42:49.868Z,14.52
2018-09-29T16:45:19.392Z,14.45
2018-09-29T16:47:47.955Z,14.41
2018-09-29T16:50:16.622Z,14.46
2018-09-29T16:52:46.082Z,14.35
2018-09-29T16:55:14.797Z,14.08
2018-09-29T16:57:43.582Z,13.68
2018-09-29T17:00:12.289Z,13.27
2018-09-29T17:02:40.971Z,13.24
2018-09-29T17:05:10.326Z,13.11
2018-09-29T17:07:38.921Z,13.02
2018-09-29T17:10:07.678Z,12.80
2018-09-29T17:12:37.085Z,12.63
2018-09-29T17:15:05.913Z,12.63
2018-09-29T17:17:35.672Z,12.65
2018-09-29T17:20:04.291Z,12.53
2018-09-29T17:22:32.837Z,12.48
2018-09-29T17:25:01.491Z,12.50
2018-09-29T17:27:32.363Z,12.58
2018-09-29T17:30:01.057Z,12.66
2018-09-29T17:32:29.862Z,12.33
2018-09-29T17:34:59.114Z,12.00
2018-09-29T17:37:27.762Z,11.70
2018-09-29T17:39:57.180Z,11.43
2018-09-29T17:42:25.851Z,11.23
2018-09-29T17:44:55.065Z,11.15
2018-09-29T17:47:24.413Z,11.14
2018-09-29T17:49:53.081Z,11.07
2018-09-29T17:52:21.905Z,11.01
2018-09-29T17:54:51.921Z,11.15
2018-09-29T17:57:20.546Z,11.53
2018-09-29T17:59:49.573Z,11.60
2018-09-29T18:02:18.307Z,11.59
2018-09-29T18:04:46.867Z,11.77
2018-09-29T18:07:15.397Z,11.54
2018-09-29T18:09:43.970Z,11.28
2018-09-29T18:12:12.545Z,11.05
2018-09-29T18:14:41.172Z,10.78
2018-09-29T18:17:09.766Z,10.50
2018-09-29T18:19:38.311Z,10.39
2018-09-29T18:22:07.110Z,10.34
2018-09-29T18:24:35.677Z,10.19
2018-09-29T18:27:04.240Z,10.25
2018-09-29T18:29:32.844Z,10.72
2018-09-29T18:32:02.160Z,11.03
2018-09-29T18:34:30.766Z,11.23
2018-09-29T18:36:59.425Z,11.15
2018-09-29T18:39:28.008Z,11.26
2018-09-29T18:41:56.591Z,11.12
2018-09-29T18:44:25.191Z,10.88
2018-09-29T18:46:53.762Z,10.77
2018-09-29T18:49:22.380Z,10.47
2018-09-29T18:51:50.942Z,10.11
2018-09-29T18:54:19.771Z,9.91
2018-09-29T18:56:48.393Z,9.82
2018-09-29T18:59:17.044Z,9.89
2018-09-29T19:01:45.614Z,10.20
2018-09-29T19:04:14.312Z,10.57
2018-09-29T19:06:42.843Z,10.72
2018-09-29T19:09:12.936Z,10.86
2018-09-29T19:11:42.421Z,10.75
2018-09-29T19:14:11.021Z,10.71
2018-09-29T19:16:39.615Z,10.68
2018-09-29T19:19:08.208Z,10.46
2018-09-29T19:21:36.791Z,10.32
2018-09-29T19:24:05.476Z,10.06
2018-09-29T19:26:34.064Z,9.61
2018-09-29T19:29:02.996Z,9.33
2018-09-29T19:31:31.607Z,9.19
2018-09-29T19:34:00.216Z,9.23
2018-09-29T19:36:28.780Z,9.45
2018-09-29T19:38:57.361Z,9.83
2018-09-29T19:41:25.910Z,10.22
2018-09-29T19:43:54.471Z,10.53
2018-09-29T19:46:23.151Z,10.53
2018-09-29T19:48:51.790Z,10.38
2018-09-29T19:51:20.456Z,10.37
2018-09-29T19:53:49.892Z,10.23
2018-09-29T19:56:18.477Z,9.99
2018-09-29T19:58:47.052Z,9.57
2018-09-29T20:01:16.474Z,9.09
2018-09-29T20:03:45.120Z,8.76
2018-09-29T20:06:13.676Z,8.63
2018-09-29T20:08:42.324Z,8.59
2018-09-29T20:11:10.917Z,9.02
2018-09-29T20:13:39.637Z,9.41
2018-09-29T20:16:08.369Z,9.86
2018-09-29T20:18:36.915Z,10.11
2018-09-29T20:21:05.481Z,10.17
2018-09-29T20:23:34.069Z,10.00
2018-09-29T20:26:02.714Z,10.01
2018-09-29T20:28:31.391Z,9.93
2018-09-29T20:31:00.210Z,9.56
2018-09-29T20:33:28.766Z,9.10
2018-09-29T20:35:57.816Z,8.78
2018-09-29T20:38:26.594Z,8.61
2018-09-29T20:40:55.345Z,8.41
2018-09-29T20:43:24.095Z,8.51
2018-09-29T20:45:52.705Z,8.90
2018-09-29T20:48:21.310Z,9.34
2018-09-29T20:50:50.338Z,9.62
2018-09-29T20:53:18.905Z,9.88
2018-09-29T20:55:47.500Z,9.89
2018-09-29T20:58:16.087Z,9.62
2018-09-29T21:00:44.652Z,9.53
2018-09-29T21:03:13.351Z,9.57
2018-09-29T21:05:41.930Z,9.47
2018-09-29T21:08:10.518Z,9.14
2018-09-29T21:10:39.067Z,8.98
2018-09-29T21:13:08.486Z,9.02
2018-09-29T21:15:37.235Z,9.17
2018-09-29T21:18:05.822Z,9.25
2018-09-29T21:20:34.359Z,9.45
2018-09-29T21:23:02.895Z,9.55
2018-09-29T21:25:31.520Z,9.52
2018-09-29T21:28:00.057Z,9.76
2018-09-29T21:30:28.632Z,9.93
2018-09-29T21:32:57.287Z,9.89
2018-09-29T21:35:25.931Z,9.77
2018-09-29T21:37:54.473Z,9.72
2018-09-29T21:40:23.109Z,9.45
2018-09-29T21:42:51.701Z,9.01
2018-09-29T21:45:20.335Z,8.61
2018-09-29T21:47:48.985Z,8.32
2018-09-29T21:50:17.605Z,8.22
2018-09-29T21:52:46.160Z,8.31
2018-09-29T21:55:14.761Z,8.58
2018-09-29T21:57:43.319Z,8.91
2018-09-29T22:00:12.035Z,9.17
2018-09-29T22:02:40.630Z,9.36
2018-09-29T22:05:09.251Z,9.55
2018-09-29T22:07:37.886Z,9.48
2018-09-29T22:10:06.479Z,9.30
2018-09-29T22:12:35.001Z,9.27
2018-09-29T22:15:03.630Z,9.10
2018-09-29T22:17:32.215Z,8.65
2018-09-29T22:20:00.822Z,8.45
2018-09-29T22:22:29.395Z,8.25
2018-09-29T22:24:57.928Z,8.17
2018-09-29T22:27:26.445Z,8.36
2018-09-29T22:29:55.046Z,8.49
2018-09-29T22:32:23.591Z,8.81
2018-09-29T22:34:52.172Z,9.02
2018-09-29T22:37:20.739Z,9.17
2018-09-29T22:39:49.341Z,9.25
2018-09-29T22:42:17.920Z,9.28
2018-09-29T22:44:46.431Z,9.12
2018-09-29T22:47:15.027Z,8.97
2018-09-29T22:49:43.587Z,8.95
2018-09-29T22:52:12.252Z,8.85
2018-09-29T22:54:40.830Z,8.78
2018-09-29T22:57:09.391Z,8.68
2018-09-29T22:59:37.995Z,8.49
2018-09-29T23:02:07.082Z,8.33
2018-09-29T23:04:35.661Z,8.44
2018-09-29T23:07:04.274Z,8.61
2018-09-29T23:09:32.890Z,8.70
2018-09-29T23:12:01.470Z,8.74
2018-09-29T23:14:31.076Z,8.85
2018-09-29T23:16:59.596Z,8.81
2018-09-29T23:19:28.245Z,8.73
2018-09-29T23:21:56.806Z,8.49
2018-09-29T23:24:25.985Z,8.44
2018-09-29T23:26:54.552Z,8.26
2018-09-29T23:29:23.050Z,7.99
2018-09-29T23:31:51.659Z,7.65
2018-09-29T23:34:20.520Z,7.50
2018-09-29T23:36:49.168Z,7.58
2018-09-29T23:39:17.770Z,7.81
2018-09-29T23:41:46.404Z,8.08
2018-09-29T23:44:14.959Z,8.28
2018-09-29T23:46:43.556Z,8.47
2018-09-29T23:49:12.590Z,8.51
2018-09-29T23:51:41.171Z,8.60
2018-09-29T23:54:09.688Z,8.64
2018-09-29T23:56:38.316Z,8.33
2018-09-29T23:59:06.879Z,8.21
